sensor_id;sensor_type;location;lat;lon;timestamp;P1;durP1;ratioP1;P2;durP2;ratioP2
39410;SDS011;26579;43.238;23.124;2023-03-05T00:00:36;59.45;;;27.42;;
39410;SDS011;26579;43.238;23.124;2023-03-05T00:03:01;51.10;;;21.38;;
39410;SDS011;26579;43.238;23.124;2023-03-05T00:05:27;39.30;;;19.63;;
39410;SDS011;26579;43.238;23.124;2023-03-05T00:07:53;68.85;;;32.88;;
39410;SDS011;26579;43.238;23.124;2023-03-05T00:10:19;70.38;;;35.00;;
39410;SDS011;26579;43.238;23.124;2023-03-05T00:12:45;59.25;;;27.48;;
39410;SDS011;26579;43.238;23.124;2023-03-05T00:15:11;92.80;;;40.35;;
39410;SDS011;26579;43.238;23.124;2023-03-05T00:17:37;84.32;;;39.35;;
39410;SDS011;26579;43.238;23.124;2023-03-05T00:20:02;71.57;;;32.95;;
39410;SDS011;26579;43.238;23.124;2023-03-05T00:22:28;43.38;;;20.40;;
39410;SDS011;26579;43.238;23.124;2023-03-05T00:24:54;34.90;;;17.65;;
39410;SDS011;26579;43.238;23.124;2023-03-05T00:27:20;40.38;;;18.42;;
39410;SDS011;26579;43.238;23.124;2023-03-05T00:29:46;36.03;;;19.58;;
39410;SDS011;26579;43.238;23.124;2023-03-05T00:32:11;31.48;;;14.60;;
39410;SDS011;26579;43.238;23.124;2023-03-05T00:34:37;27.90;;;14.20;;
39410;SDS011;26579;43.238;23.124;2023-03-05T00:37:03;27.95;;;13.30;;
39410;SDS011;26579;43.238;23.124;2023-03-05T00:39:28;29.15;;;14.25;;
39410;SDS011;26579;43.238;23.124;2023-03-05T00:41:55;26.83;;;14.25;;
39410;SDS011;26579;43.238;23.124;2023-03-05T00:44:21;31.02;;;14.32;;
39410;SDS011;26579;43.238;23.124;2023-03-05T00:46:47;30.80;;;14.90;;
39410;SDS011;26579;43.238;23.124;2023-03-05T00:49:13;32.47;;;14.40;;
39410;SDS011;26579;43.238;23.124;2023-03-05T00:51:39;28.42;;;14.27;;
39410;SDS011;26579;43.238;23.124;2023-03-05T00:54:05;32.80;;;13.90;;
39410;SDS011;26579;43.238;23.124;2023-03-05T00:56:31;30.02;;;14.85;;
39410;SDS011;26579;43.238;23.124;2023-03-05T00:58:57;45.65;;;15.93;;
39410;SDS011;26579;43.238;23.124;2023-03-05T01:01:23;36.33;;;16.45;;
39410;SDS011;26579;43.238;23.124;2023-03-05T01:03:49;33.08;;;16.60;;
39410;SDS011;26579;43.238;23.124;2023-03-05T01:06:16;38.47;;;17.48;;
39410;SDS011;26579;43.238;23.124;2023-03-05T01:08:43;32.22;;;14.68;;
39410;SDS011;26579;43.238;23.124;2023-03-05T01:11:11;31.25;;;14.77;;
39410;SDS011;26579;43.238;23.124;2023-03-05T01:13:37;36.38;;;16.05;;
39410;SDS011;26579;43.238;23.124;2023-03-05T01:16:03;34.45;;;16.13;;
39410;SDS011;26579;43.238;23.124;2023-03-05T01:18:29;37.72;;;17.77;;
39410;SDS011;26579;43.238;23.124;2023-03-05T01:20:55;30.35;;;14.82;;
39410;SDS011;26579;43.238;23.124;2023-03-05T01:23:20;34.55;;;14.40;;
39410;SDS011;26579;43.238;23.124;2023-03-05T01:25:56;31.85;;;15.65;;
39410;SDS011;26579;43.238;23.124;2023-03-05T01:28:23;33.45;;;14.38;;
39410;SDS011;26579;43.238;23.124;2023-03-05T01:30:50;29.75;;;14.00;;
39410;SDS011;26579;43.238;23.124;2023-03-05T01:33:16;27.98;;;12.93;;
39410;SDS011;26579;43.238;23.124;2023-03-05T01:35:44;29.42;;;13.60;;
39410;SDS011;26579;43.238;23.124;2023-03-05T01:38:11;30.60;;;12.80;;
39410;SDS011;26579;43.238;23.124;2023-03-05T01:40:37;27.02;;;13.25;;
39410;SDS011;26579;43.238;23.124;2023-03-05T01:48:22;28.33;;;12.68;;
39410;SDS011;26579;43.238;23.124;2023-03-05T01:50:48;31.45;;;11.75;;
39410;SDS011;26579;43.238;23.124;2023-03-05T01:53:14;24.58;;;12.68;;
39410;SDS011;26579;43.238;23.124;2023-03-05T01:55:40;30.15;;;13.80;;
39410;SDS011;26579;43.238;23.124;2023-03-05T01:58:10;31.40;;;13.93;;
39410;SDS011;26579;43.238;23.124;2023-03-05T02:00:45;31.92;;;14.85;;
39410;SDS011;26579;43.238;23.124;2023-03-05T02:03:12;30.60;;;14.60;;
39410;SDS011;26579;43.238;23.124;2023-03-05T02:05:39;35.45;;;17.48;;
39410;SDS011;26579;43.238;23.124;2023-03-05T02:08:08;29.48;;;14.30;;
39410;SDS011;26579;43.238;23.124;2023-03-05T02:10:36;28.23;;;13.68;;
39410;SDS011;26579;43.238;23.124;2023-03-05T02:13:13;31.33;;;11.98;;
39410;SDS011;26579;43.238;23.124;2023-03-05T02:15:44;32.22;;;13.57;;
39410;SDS011;26579;43.238;23.124;2023-03-05T02:18:11;31.42;;;13.75;;
39410;SDS011;26579;43.238;23.124;2023-03-05T02:23:22;27.58;;;13.05;;
39410;SDS011;26579;43.238;23.124;2023-03-05T02:25:49;32.70;;;12.88;;
39410;SDS011;26579;43.238;23.124;2023-03-05T02:30:48;34.03;;;14.88;;
39410;SDS011;26579;43.238;23.124;2023-03-05T02:33:14;41.25;;;14.40;;
39410;SDS011;26579;43.238;23.124;2023-03-05T02:35:41;29.98;;;14.88;;
39410;SDS011;26579;43.238;23.124;2023-03-05T02:38:15;32.85;;;14.10;;
39410;SDS011;26579;43.238;23.124;2023-03-05T02:40:43;32.47;;;14.85;;
39410;SDS011;26579;43.238;23.124;2023-03-05T02:43:09;32.42;;;15.38;;
39410;SDS011;26579;43.238;23.124;2023-03-05T02:45:36;33.10;;;14.68;;
39410;SDS011;26579;43.238;23.124;2023-03-05T02:48:02;29.75;;;13.48;;
39410;SDS011;26579;43.238;23.124;2023-03-05T02:50:28;29.30;;;13.25;;
39410;SDS011;26579;43.238;23.124;2023-03-05T02:52:55;27.90;;;14.40;;
39410;SDS011;26579;43.238;23.124;2023-03-05T02:55:21;26.67;;;12.90;;
39410;SDS011;26579;43.238;23.124;2023-03-05T02:57:46;25.27;;;13.45;;
39410;SDS011;26579;43.238;23.124;2023-03-05T03:00:12;30.73;;;13.88;;
39410;SDS011;26579;43.238;23.124;2023-03-05T03:02:38;40.92;;;14.82;;
39410;SDS011;26579;43.238;23.124;2023-03-05T03:05:04;28.85;;;14.05;;
39410;SDS011;26579;43.238;23.124;2023-03-05T03:07:30;28.67;;;14.00;;
39410;SDS011;26579;43.238;23.124;2023-03-05T03:09:56;31.02;;;14.75;;
39410;SDS011;26579;43.238;23.124;2023-03-05T03:12:21;34.58;;;13.65;;
39410;SDS011;26579;43.238;23.124;2023-03-05T03:14:47;25.10;;;13.60;;
39410;SDS011;26579;43.238;23.124;2023-03-05T03:17:14;30.85;;;15.27;;
39410;SDS011;26579;43.238;23.124;2023-03-05T03:19:42;30.92;;;15.73;;
39410;SDS011;26579;43.238;23.124;2023-03-05T03:22:09;31.02;;;17.73;;
39410;SDS011;26579;43.238;23.124;2023-03-05T03:24:37;29.90;;;14.95;;
39410;SDS011;26579;43.238;23.124;2023-03-05T03:27:04;32.15;;;15.32;;
39410;SDS011;26579;43.238;23.124;2023-03-05T03:29:30;32.67;;;14.15;;
39410;SDS011;26579;43.238;23.124;2023-03-05T03:31:56;31.63;;;14.52;;
39410;SDS011;26579;43.238;23.124;2023-03-05T03:34:22;39.22;;;16.23;;
39410;SDS011;26579;43.238;23.124;2023-03-05T03:36:49;36.13;;;16.55;;
39410;SDS011;26579;43.238;23.124;2023-03-05T03:39:15;35.63;;;16.58;;
39410;SDS011;26579;43.238;23.124;2023-03-05T03:41:43;37.30;;;17.13;;
39410;SDS011;26579;43.238;23.124;2023-03-05T03:44:10;40.55;;;17.10;;
39410;SDS011;26579;43.238;23.124;2023-03-05T03:46:37;36.42;;;17.10;;
39410;SDS011;26579;43.238;23.124;2023-03-05T03:49:04;43.08;;;18.80;;
39410;SDS011;26579;43.238;23.124;2023-03-05T03:51:31;42.33;;;21.80;;
39410;SDS011;26579;43.238;23.124;2023-03-05T03:53:57;44.10;;;21.23;;
39410;SDS011;26579;43.238;23.124;2023-03-05T03:56:23;30.38;;;15.07;;
39410;SDS011;26579;43.238;23.124;2023-03-05T03:58:49;30.25;;;15.00;;
39410;SDS011;26579;43.238;23.124;2023-03-05T04:01:16;35.58;;;17.90;;
39410;SDS011;26579;43.238;23.124;2023-03-05T04:03:41;37.30;;;15.50;;
39410;SDS011;26579;43.238;23.124;2023-03-05T04:06:07;35.10;;;16.05;;
39410;SDS011;26579;43.238;23.124;2023-03-05T04:08:33;39.83;;;17.15;;
39410;SDS011;26579;43.238;23.124;2023-03-05T04:10:59;40.83;;;17.05;;
39410;SDS011;26579;43.238;23.124;2023-03-05T04:13:25;32.60;;;14.77;;
39410;SDS011;26579;43.238;23.124;2023-03-05T04:15:51;34.08;;;16.52;;
39410;SDS011;26579;43.238;23.124;2023-03-05T04:18:17;32.03;;;15.57;;
39410;SDS011;26579;43.238;23.124;2023-03-05T04:20:43;26.83;;;13.35;;
39410;SDS011;26579;43.238;23.124;2023-03-05T04:23:09;24.88;;;13.30;;
39410;SDS011;26579;43.238;23.124;2023-03-05T04:25:34;31.13;;;13.90;;
39410;SDS011;26579;43.238;23.124;2023-03-05T04:28:00;29.35;;;14.10;;
39410;SDS011;26579;43.238;23.124;2023-03-05T04:30:25;33.25;;;14.75;;
39410;SDS011;26579;43.238;23.124;2023-03-05T04:32:51;32.88;;;14.35;;
39410;SDS011;26579;43.238;23.124;2023-03-05T04:35:17;27.00;;;13.50;;
39410;SDS011;26579;43.238;23.124;2023-03-05T04:37:43;34.67;;;14.50;;
39410;SDS011;26579;43.238;23.124;2023-03-05T04:40:09;34.17;;;16.95;;
39410;SDS011;26579;43.238;23.124;2023-03-05T04:42:35;34.95;;;21.00;;
39410;SDS011;26579;43.238;23.124;2023-03-05T04:45:01;50.10;;;25.73;;
39410;SDS011;26579;43.238;23.124;2023-03-05T04:47:28;41.80;;;21.95;;
39410;SDS011;26579;43.238;23.124;2023-03-05T04:49:54;42.83;;;26.65;;
39410;SDS011;26579;43.238;23.124;2023-03-05T04:52:19;38.13;;;19.77;;
39410;SDS011;26579;43.238;23.124;2023-03-05T04:54:45;28.08;;;15.30;;
39410;SDS011;26579;43.238;23.124;2023-03-05T04:57:11;31.90;;;14.35;;
39410;SDS011;26579;43.238;23.124;2023-03-05T04:59:37;28.40;;;13.93;;
39410;SDS011;26579;43.238;23.124;2023-03-05T05:02:03;29.38;;;14.63;;
39410;SDS011;26579;43.238;23.124;2023-03-05T05:04:28;29.58;;;15.00;;
39410;SDS011;26579;43.238;23.124;2023-03-05T05:06:55;30.92;;;15.25;;
39410;SDS011;26579;43.238;23.124;2023-03-05T05:09:22;32.97;;;16.33;;
39410;SDS011;26579;43.238;23.124;2023-03-05T05:11:49;32.63;;;16.50;;
39410;SDS011;26579;43.238;23.124;2023-03-05T05:14:14;29.90;;;15.80;;
39410;SDS011;26579;43.238;23.124;2023-03-05T05:16:40;32.20;;;16.10;;
39410;SDS011;26579;43.238;23.124;2023-03-05T05:19:06;28.38;;;15.18;;
39410;SDS011;26579;43.238;23.124;2023-03-05T05:21:31;33.40;;;16.50;;
39410;SDS011;26579;43.238;23.124;2023-03-05T05:23:57;31.55;;;17.00;;
39410;SDS011;26579;43.238;23.124;2023-03-05T05:26:23;35.83;;;17.05;;
39410;SDS011;26579;43.238;23.124;2023-03-05T05:28:48;35.53;;;18.25;;
39410;SDS011;26579;43.238;23.124;2023-03-05T05:31:14;38.83;;;17.05;;
39410;SDS011;26579;43.238;23.124;2023-03-05T05:33:41;35.58;;;17.45;;
39410;SDS011;26579;43.238;23.124;2023-03-05T05:36:07;32.88;;;17.15;;
39410;SDS011;26579;43.238;23.124;2023-03-05T05:38:36;41.80;;;18.60;;
39410;SDS011;26579;43.238;23.124;2023-03-05T05:41:03;33.67;;;16.75;;
39410;SDS011;26579;43.238;23.124;2023-03-05T05:43:28;44.13;;;20.58;;
39410;SDS011;26579;43.238;23.124;2023-03-05T05:45:57;43.17;;;23.13;;
39410;SDS011;26579;43.238;23.124;2023-03-05T05:48:34;38.42;;;18.77;;
39410;SDS011;26579;43.238;23.124;2023-03-05T05:51:11;42.88;;;21.77;;
39410;SDS011;26579;43.238;23.124;2023-03-05T05:53:38;38.97;;;20.65;;
39410;SDS011;26579;43.238;23.124;2023-03-05T05:56:04;48.50;;;25.25;;
39410;SDS011;26579;43.238;23.124;2023-03-05T05:58:31;44.28;;;23.40;;
39410;SDS011;26579;43.238;23.124;2023-03-05T06:00:57;39.03;;;21.15;;
39410;SDS011;26579;43.238;23.124;2023-03-05T06:03:22;39.28;;;20.00;;
39410;SDS011;26579;43.238;23.124;2023-03-05T06:05:48;36.75;;;18.50;;
39410;SDS011;26579;43.238;23.124;2023-03-05T06:08:14;35.95;;;19.27;;
39410;SDS011;26579;43.238;23.124;2023-03-05T06:10:40;41.17;;;20.67;;
39410;SDS011;26579;43.238;23.124;2023-03-05T06:13:06;41.95;;;20.20;;
39410;SDS011;26579;43.238;23.124;2023-03-05T06:15:31;33.67;;;16.88;;
39410;SDS011;26579;43.238;23.124;2023-03-05T06:17:57;39.00;;;16.88;;
39410;SDS011;26579;43.238;23.124;2023-03-05T06:20:23;35.13;;;19.33;;
39410;SDS011;26579;43.238;23.124;2023-03-05T06:22:49;33.95;;;18.67;;
39410;SDS011;26579;43.238;23.124;2023-03-05T06:25:15;32.17;;;16.88;;
39410;SDS011;26579;43.238;23.124;2023-03-05T06:27:41;34.80;;;18.77;;
39410;SDS011;26579;43.238;23.124;2023-03-05T06:30:07;33.15;;;20.10;;
39410;SDS011;26579;43.238;23.124;2023-03-05T06:32:34;38.10;;;21.80;;
39410;SDS011;26579;43.238;23.124;2023-03-05T06:35:00;39.85;;;25.02;;
39410;SDS011;26579;43.238;23.124;2023-03-05T06:37:26;40.65;;;23.92;;
39410;SDS011;26579;43.238;23.124;2023-03-05T06:39:52;36.55;;;20.83;;
39410;SDS011;26579;43.238;23.124;2023-03-05T06:42:17;35.67;;;21.95;;
39410;SDS011;26579;43.238;23.124;2023-03-05T06:44:46;32.13;;;18.45;;
39410;SDS011;26579;43.238;23.124;2023-03-05T06:47:11;29.38;;;19.35;;
39410;SDS011;26579;43.238;23.124;2023-03-05T06:49:37;30.05;;;18.23;;
39410;SDS011;26579;43.238;23.124;2023-03-05T06:52:04;33.97;;;18.92;;
39410;SDS011;26579;43.238;23.124;2023-03-05T06:54:30;28.13;;;17.83;;
39410;SDS011;26579;43.238;23.124;2023-03-05T06:56:56;29.30;;;17.75;;
39410;SDS011;26579;43.238;23.124;2023-03-05T06:59:21;33.85;;;21.00;;
39410;SDS011;26579;43.238;23.124;2023-03-05T07:01:47;67.88;;;37.25;;
39410;SDS011;26579;43.238;23.124;2023-03-05T07:04:13;106.30;;;80.57;;
39410;SDS011;26579;43.238;23.124;2023-03-05T07:06:39;40.25;;;26.92;;
39410;SDS011;26579;43.238;23.124;2023-03-05T07:09:06;35.78;;;25.70;;
39410;SDS011;26579;43.238;23.124;2023-03-05T07:11:33;37.00;;;25.50;;
39410;SDS011;26579;43.238;23.124;2023-03-05T07:13:59;32.17;;;20.50;;
39410;SDS011;26579;43.238;23.124;2023-03-05T07:16:26;32.00;;;19.15;;
39410;SDS011;26579;43.238;23.124;2023-03-05T07:18:54;25.60;;;16.00;;
39410;SDS011;26579;43.238;23.124;2023-03-05T07:21:25;28.27;;;17.58;;
39410;SDS011;26579;43.238;23.124;2023-03-05T07:23:52;38.15;;;20.05;;
39410;SDS011;26579;43.238;23.124;2023-03-05T07:26:19;28.73;;;17.95;;
39410;SDS011;26579;43.238;23.124;2023-03-05T07:28:46;30.48;;;17.25;;
39410;SDS011;26579;43.238;23.124;2023-03-05T07:31:13;34.38;;;21.73;;
39410;SDS011;26579;43.238;23.124;2023-03-05T07:33:41;27.65;;;16.83;;
39410;SDS011;26579;43.238;23.124;2023-03-05T07:36:07;25.10;;;15.45;;
39410;SDS011;26579;43.238;23.124;2023-03-05T07:38:34;41.80;;;26.20;;
39410;SDS011;26579;43.238;23.124;2023-03-05T07:41:03;26.52;;;17.45;;
39410;SDS011;26579;43.238;23.124;2023-03-05T07:43:30;20.50;;;13.80;;
39410;SDS011;26579;43.238;23.124;2023-03-05T07:45:56;31.55;;;17.55;;
39410;SDS011;26579;43.238;23.124;2023-03-05T07:48:22;25.35;;;14.80;;
39410;SDS011;26579;43.238;23.124;2023-03-05T07:50:48;26.58;;;15.25;;
39410;SDS011;26579;43.238;23.124;2023-03-05T07:53:14;30.33;;;19.75;;
39410;SDS011;26579;43.238;23.124;2023-03-05T07:55:43;26.35;;;16.23;;
39410;SDS011;26579;43.238;23.124;2023-03-05T07:58:10;20.35;;;14.52;;
39410;SDS011;26579;43.238;23.124;2023-03-05T08:00:37;21.13;;;12.15;;
39410;SDS011;26579;43.238;23.124;2023-03-05T08:03:04;22.05;;;14.00;;
39410;SDS011;26579;43.238;23.124;2023-03-05T08:05:30;22.77;;;13.15;;
39410;SDS011;26579;43.238;23.124;2023-03-05T08:07:56;20.17;;;12.63;;
39410;SDS011;26579;43.238;23.124;2023-03-05T08:10:22;21.42;;;11.95;;
39410;SDS011;26579;43.238;23.124;2023-03-05T08:12:49;22.73;;;13.35;;
39410;SDS011;26579;43.238;23.124;2023-03-05T08:15:14;16.05;;;10.95;;
39410;SDS011;26579;43.238;23.124;2023-03-05T08:17:40;19.83;;;13.75;;
39410;SDS011;26579;43.238;23.124;2023-03-05T08:20:06;18.65;;;12.05;;
39410;SDS011;26579;43.238;23.124;2023-03-05T08:22:32;21.63;;;12.32;;
39410;SDS011;26579;43.238;23.124;2023-03-05T08:24:59;24.90;;;13.25;;
39410;SDS011;26579;43.238;23.124;2023-03-05T08:27:25;25.67;;;13.48;;
39410;SDS011;26579;43.238;23.124;2023-03-05T08:29:51;24.58;;;15.20;;
39410;SDS011;26579;43.238;23.124;2023-03-05T08:32:17;31.20;;;24.45;;
39410;SDS011;26579;43.238;23.124;2023-03-05T08:34:42;18.73;;;12.60;;
39410;SDS011;26579;43.238;23.124;2023-03-05T08:37:08;21.13;;;13.50;;
39410;SDS011;26579;43.238;23.124;2023-03-05T08:39:34;17.15;;;11.77;;
39410;SDS011;26579;43.238;23.124;2023-03-05T08:42:01;21.83;;;15.63;;
39410;SDS011;26579;43.238;23.124;2023-03-05T08:44:27;14.68;;;10.05;;
39410;SDS011;26579;43.238;23.124;2023-03-05T08:46:53;15.93;;;10.77;;
39410;SDS011;26579;43.238;23.124;2023-03-05T08:49:19;18.58;;;10.48;;
39410;SDS011;26579;43.238;23.124;2023-03-05T08:51:44;17.30;;;11.68;;
39410;SDS011;26579;43.238;23.124;2023-03-05T08:54:10;20.20;;;11.25;;
39410;SDS011;26579;43.238;23.124;2023-03-05T08:56:36;21.75;;;12.32;;
39410;SDS011;26579;43.238;23.124;2023-03-05T08:59:02;22.70;;;14.90;;
39410;SDS011;26579;43.238;23.124;2023-03-05T09:01:29;21.73;;;12.88;;
39410;SDS011;26579;43.238;23.124;2023-03-05T09:03:56;21.13;;;11.68;;
39410;SDS011;26579;43.238;23.124;2023-03-05T09:06:22;20.10;;;11.70;;
39410;SDS011;26579;43.238;23.124;2023-03-05T09:08:49;21.42;;;12.60;;
39410;SDS011;26579;43.238;23.124;2023-03-05T09:11:15;21.50;;;12.02;;
39410;SDS011;26579;43.238;23.124;2023-03-05T09:13:41;19.50;;;11.75;;
39410;SDS011;26579;43.238;23.124;2023-03-05T09:16:08;19.48;;;11.25;;
39410;SDS011;26579;43.238;23.124;2023-03-05T09:18:36;23.73;;;12.70;;
39410;SDS011;26579;43.238;23.124;2023-03-05T09:21:06;18.48;;;10.23;;
39410;SDS011;26579;43.238;23.124;2023-03-05T09:23:32;24.95;;;12.18;;
39410;SDS011;26579;43.238;23.124;2023-03-05T09:25:58;23.60;;;13.52;;
39410;SDS011;26579;43.238;23.124;2023-03-05T09:28:24;23.23;;;13.38;;
39410;SDS011;26579;43.238;23.124;2023-03-05T09:30:50;21.35;;;14.02;;
39410;SDS011;26579;43.238;23.124;2023-03-05T09:33:15;21.15;;;13.68;;
39410;SDS011;26579;43.238;23.124;2023-03-05T09:35:41;19.73;;;12.55;;
39410;SDS011;26579;43.238;23.124;2023-03-05T09:38:07;20.35;;;13.13;;
39410;SDS011;26579;43.238;23.124;2023-03-05T09:41:34;21.30;;;13.23;;
39410;SDS011;26579;43.238;23.124;2023-03-05T09:46:30;19.83;;;11.35;;
39410;SDS011;26579;43.238;23.124;2023-03-05T09:49:19;18.65;;;11.50;;
39410;SDS011;26579;43.238;23.124;2023-03-05T09:52:06;19.15;;;11.93;;
39410;SDS011;26579;43.238;23.124;2023-03-05T09:54:43;17.77;;;11.90;;
39410;SDS011;26579;43.238;23.124;2023-03-05T09:57:16;21.77;;;13.07;;
39410;SDS011;26579;43.238;23.124;2023-03-05T09:59:53;17.80;;;10.82;;
39410;SDS011;26579;43.238;23.124;2023-03-05T10:02:49;18.90;;;11.77;;
39410;SDS011;26579;43.238;23.124;2023-03-05T10:07:58;19.48;;;11.45;;
39410;SDS011;26579;43.238;23.124;2023-03-05T10:10:35;22.92;;;12.20;;
39410;SDS011;26579;43.238;23.124;2023-03-05T10:13:18;20.20;;;11.70;;
39410;SDS011;26579;43.238;23.124;2023-03-05T10:24:17;21.00;;;12.32;;
39410;SDS011;26579;43.238;23.124;2023-03-05T10:27:27;19.92;;;11.85;;
39410;SDS011;26579;43.238;23.124;2023-03-05T10:33:07;17.85;;;11.75;;
39410;SDS011;26579;43.238;23.124;2023-03-05T10:35:58;19.05;;;11.20;;
39410;SDS011;26579;43.238;23.124;2023-03-05T10:44:43;23.23;;;15.68;;
39410;SDS011;26579;43.238;23.124;2023-03-05T10:47:20;17.88;;;12.65;;
39410;SDS011;26579;43.238;23.124;2023-03-05T10:49:51;22.00;;;12.88;;
39410;SDS011;26579;43.238;23.124;2023-03-05T10:52:20;17.27;;;11.75;;
39410;SDS011;26579;43.238;23.124;2023-03-05T10:54:52;19.30;;;11.05;;
39410;SDS011;26579;43.238;23.124;2023-03-05T10:57:21;18.55;;;11.95;;
39410;SDS011;26579;43.238;23.124;2023-03-05T11:00:00;20.13;;;10.30;;
39410;SDS011;26579;43.238;23.124;2023-03-05T11:02:51;20.05;;;11.75;;
39410;SDS011;26579;43.238;23.124;2023-03-05T11:08:31;18.58;;;11.85;;
39410;SDS011;26579;43.238;23.124;2023-03-05T11:11:14;21.83;;;12.13;;
39410;SDS011;26579;43.238;23.124;2023-03-05T11:17:21;20.92;;;11.48;;
39410;SDS011;26579;43.238;23.124;2023-03-05T11:24:42;31.60;;;17.48;;
39410;SDS011;26579;43.238;23.124;2023-03-05T11:27:21;19.77;;;10.57;;
39410;SDS011;26579;43.238;23.124;2023-03-05T11:29:55;17.85;;;10.57;;
39410;SDS011;26579;43.238;23.124;2023-03-05T11:32:23;19.52;;;11.10;;
39410;SDS011;26579;43.238;23.124;2023-03-05T11:34:52;19.10;;;12.25;;
39410;SDS011;26579;43.238;23.124;2023-03-05T11:37:29;17.95;;;11.18;;
39410;SDS011;26579;43.238;23.124;2023-03-05T11:42:34;23.27;;;11.52;;
39410;SDS011;26579;43.238;23.124;2023-03-05T11:45:01;18.08;;;10.40;;
39410;SDS011;26579;43.238;23.124;2023-03-05T11:47:44;15.88;;;10.60;;
39410;SDS011;26579;43.238;23.124;2023-03-05T11:53:01;16.92;;;9.95;;
39410;SDS011;26579;43.238;23.124;2023-03-05T11:55:43;19.27;;;11.07;;
39410;SDS011;26579;43.238;23.124;2023-03-05T12:00:43;15.23;;;9.95;;
39410;SDS011;26579;43.238;23.124;2023-03-05T12:03:12;20.25;;;10.65;;
39410;SDS011;26579;43.238;23.124;2023-03-05T12:05:44;21.75;;;10.88;;
39410;SDS011;26579;43.238;23.124;2023-03-05T12:08:14;19.95;;;11.02;;
39410;SDS011;26579;43.238;23.124;2023-03-05T12:10:46;21.90;;;10.95;;
39410;SDS011;26579;43.238;23.124;2023-03-05T12:13:30;16.90;;;10.00;;
39410;SDS011;26579;43.238;23.124;2023-03-05T12:24:00;20.25;;;11.30;;
39410;SDS011;26579;43.238;23.124;2023-03-05T12:34:55;31.50;;;12.88;;
39410;SDS011;26579;43.238;23.124;2023-03-05T12:39:48;24.70;;;12.40;;
39410;SDS011;26579;43.238;23.124;2023-03-05T12:42:50;23.75;;;12.52;;
39410;SDS011;26579;43.238;23.124;2023-03-05T12:47:35;26.10;;;14.43;;
39410;SDS011;26579;43.238;23.124;2023-03-05T12:50:01;25.10;;;13.48;;
39410;SDS011;26579;43.238;23.124;2023-03-05T12:52:28;23.80;;;11.80;;
39410;SDS011;26579;43.238;23.124;2023-03-05T12:57:43;21.33;;;11.90;;
39410;SDS011;26579;43.238;23.124;2023-03-05T13:00:56;25.33;;;14.20;;
39410;SDS011;26579;43.238;23.124;2023-03-05T13:03:07;24.13;;;12.65;;
39410;SDS011;26579;43.238;23.124;2023-03-05T13:05:36;21.20;;;12.68;;
39410;SDS011;26579;43.238;23.124;2023-03-05T13:10:51;28.70;;;13.63;;
39410;SDS011;26579;43.238;23.124;2023-03-05T13:13:19;26.92;;;14.93;;
39410;SDS011;26579;43.238;23.124;2023-03-05T13:15:46;23.73;;;14.43;;
39410;SDS011;26579;43.238;23.124;2023-03-05T13:18:24;26.48;;;15.23;;
39410;SDS011;26579;43.238;23.124;2023-03-05T13:23:37;17.88;;;10.40;;
39410;SDS011;26579;43.238;23.124;2023-03-05T13:26:17;17.42;;;10.65;;
39410;SDS011;26579;43.238;23.124;2023-03-05T13:29:01;19.38;;;10.07;;
39410;SDS011;26579;43.238;23.124;2023-03-05T13:34:18;23.23;;;12.98;;
39410;SDS011;26579;43.238;23.124;2023-03-05T13:36:54;18.88;;;10.48;;
39410;SDS011;26579;43.238;23.124;2023-03-05T13:39:25;21.40;;;11.75;;
39410;SDS011;26579;43.238;23.124;2023-03-05T13:42:04;20.52;;;11.93;;
39410;SDS011;26579;43.238;23.124;2023-03-05T13:44:39;21.88;;;11.00;;
39410;SDS011;26579;43.238;23.124;2023-03-05T13:47:06;21.15;;;10.65;;
39410;SDS011;26579;43.238;23.124;2023-03-05T13:49:32;21.60;;;11.48;;
39410;SDS011;26579;43.238;23.124;2023-03-05T13:51:58;22.08;;;11.18;;
39410;SDS011;26579;43.238;23.124;2023-03-05T13:54:24;18.92;;;10.57;;
39410;SDS011;26579;43.238;23.124;2023-03-05T13:56:54;18.33;;;10.07;;
39410;SDS011;26579;43.238;23.124;2023-03-05T13:59:23;16.33;;;9.98;;
39410;SDS011;26579;43.238;23.124;2023-03-05T14:01:50;24.55;;;13.57;;
39410;SDS011;26579;43.238;23.124;2023-03-05T14:04:18;19.55;;;11.68;;
39410;SDS011;26579;43.238;23.124;2023-03-05T14:06:51;19.58;;;11.35;;
39410;SDS011;26579;43.238;23.124;2023-03-05T14:09:25;18.13;;;10.30;;
39410;SDS011;26579;43.238;23.124;2023-03-05T14:14:20;18.90;;;10.75;;
39410;SDS011;26579;43.238;23.124;2023-03-05T14:16:46;22.27;;;13.25;;
39410;SDS011;26579;43.238;23.124;2023-03-05T14:22:04;22.10;;;12.00;;
39410;SDS011;26579;43.238;23.124;2023-03-05T14:24:30;17.80;;;11.45;;
39410;SDS011;26579;43.238;23.124;2023-03-05T14:26:58;19.00;;;10.30;;
39410;SDS011;26579;43.238;23.124;2023-03-05T14:29:28;17.90;;;10.70;;
39410;SDS011;26579;43.238;23.124;2023-03-05T14:34:34;17.65;;;10.65;;
39410;SDS011;26579;43.238;23.124;2023-03-05T14:37:04;18.02;;;10.68;;
39410;SDS011;26579;43.238;23.124;2023-03-05T14:39:48;18.15;;;9.63;;
39410;SDS011;26579;43.238;23.124;2023-03-05T14:44:52;14.73;;;8.05;;
39410;SDS011;26579;43.238;23.124;2023-03-05T14:47:18;16.13;;;8.32;;
39410;SDS011;26579;43.238;23.124;2023-03-05T14:49:44;20.75;;;10.30;;
39410;SDS011;26579;43.238;23.124;2023-03-05T14:52:13;16.40;;;9.27;;
39410;SDS011;26579;43.238;23.124;2023-03-05T14:54:41;22.23;;;11.85;;
39410;SDS011;26579;43.238;23.124;2023-03-05T14:57:09;23.52;;;12.35;;
39410;SDS011;26579;43.238;23.124;2023-03-05T14:59:39;18.67;;;11.13;;
39410;SDS011;26579;43.238;23.124;2023-03-05T15:02:09;15.40;;;8.50;;
39410;SDS011;26579;43.238;23.124;2023-03-05T15:04:42;15.45;;;10.18;;
39410;SDS011;26579;43.238;23.124;2023-03-05T15:07:10;16.75;;;9.48;;
39410;SDS011;26579;43.238;23.124;2023-03-05T15:09:59;16.58;;;9.88;;
39410;SDS011;26579;43.238;23.124;2023-03-05T15:12:25;20.35;;;10.23;;
39410;SDS011;26579;43.238;23.124;2023-03-05T15:14:52;28.90;;;14.73;;
39410;SDS011;26579;43.238;23.124;2023-03-05T15:17:20;19.10;;;11.07;;
39410;SDS011;26579;43.238;23.124;2023-03-05T15:19:54;25.73;;;13.15;;
39410;SDS011;26579;43.238;23.124;2023-03-05T15:22:20;20.60;;;12.88;;
39410;SDS011;26579;43.238;23.124;2023-03-05T15:24:46;20.05;;;13.32;;
39410;SDS011;26579;43.238;23.124;2023-03-05T15:27:12;22.00;;;14.27;;
39410;SDS011;26579;43.238;23.124;2023-03-05T15:29:37;19.70;;;13.50;;
39410;SDS011;26579;43.238;23.124;2023-03-05T15:32:03;24.25;;;13.45;;
39410;SDS011;26579;43.238;23.124;2023-03-05T15:34:30;25.00;;;14.93;;
39410;SDS011;26579;43.238;23.124;2023-03-05T15:36:56;21.80;;;13.00;;
39410;SDS011;26579;43.238;23.124;2023-03-05T15:39:22;24.48;;;14.52;;
39410;SDS011;26579;43.238;23.124;2023-03-05T15:41:47;24.42;;;15.07;;
39410;SDS011;26579;43.238;23.124;2023-03-05T15:44:13;30.80;;;17.73;;
39410;SDS011;26579;43.238;23.124;2023-03-05T15:46:39;20.42;;;12.20;;
39410;SDS011;26579;43.238;23.124;2023-03-05T15:49:04;26.63;;;15.10;;
39410;SDS011;26579;43.238;23.124;2023-03-05T15:51:30;32.00;;;19.38;;